Historique des mesures à Cassis (13260), France
Quotidien Résumé Octobre 1, 2018 Unités:  Métrique    US   Métrique/US
« Précédent (Jour)
Suivant (Jour) »
Quotidien Hebdomadaire Mensuel Annuel Période au choix
  Maximum: Minimum: Moyenne:
Température: TemperatureC °C 14.3 °C 16.7 °C
Point de rosée: DewpointC °C 3.9 °C 7.7 °C
Humidité: Humidity % 41 % 53 %
Vitesse du vent: 0 km/h 9.3 km/h 29.8 km/h
Rafales: 0 km/h - -
Vent:- - West
Pression: PressurehPa hPa 1005.6 hPa -
Précipitations: 0.0 mm    
Historical Graphs
 
 
Mesures pour : Octobre 1, 2018
Heure Temperature Point de rosée Pression Vent Vitesse du vent Rafales Humidité Pluie (par heure) Conditions
TemperatureC °C DewpointC °C PressurehPa hPa Calm     Humidity % HourlyPrecipMM mm SoftwareType W/m2
00:10 19.3 °C 15.0 °C 1010.1 hPa WNW 15.1 km/h 21.4 km/h 76 % 0.0 mm open2300-1.11 W/m2
01:10 19.1 °C 15.0 °C 1009.8 hPa NW 9.3 km/h 17.4 km/h 77 % 0.0 mm open2300-1.11 W/m2
02:10 18.9 °C 15.2 °C 1009.8 hPa WNW 30.7 km/h 33 km/h 79 % 0.0 mm open2300-1.11 W/m2
03:10 18.9 °C 13.1 °C 1009.4 hPa NW 9.3 km/h 16.7 km/h 69 % 0.0 mm open2300-1.11 W/m2
04:10 18.6 °C 11.9 °C 1008.9 hPa NW 13.8 km/h 13.8 km/h 65 % 0.0 mm open2300-1.11 W/m2
05:10 17.8 °C 11.3 °C 1008.6 hPa NNW 9.8 km/h 31.9 km/h 66 % 0.0 mm open2300-1.11 W/m2
06:10 17.5 °C 11.3 °C 1008.3 hPa NW 12.7 km/h 26.7 km/h 67 % 0.0 mm open2300-1.11 W/m2
07:10 17.3 °C 10.6 °C 1008.4 hPa WNW 17.4 km/h 18 km/h 65 % 0.0 mm open2300-1.11 W/m2
08:10 17.0 °C 9.2 °C 1008.1 hPa West 20.9 km/h 26.7 km/h 60 % 0.0 mm open2300-1.11 W/m2
09:10 17.3 °C 7.6 °C 1008.0 hPa North 37 km/h 37 km/h 53 % 0.0 mm open2300-1.11 W/m2
10:10 17.9 °C 5.7 °C 1008.3 hPa WNW 38.8 km/h 51 km/h 45 % 0.0 mm open2300-1.11 W/m2
11:10 18.4 °C 6.2 °C 1007.8 hPa WNW 56.2 km/h 56.2 km/h 45 % 0.0 mm open2300-1.11 W/m2
12:10 18.6 °C 6.4 °C 1007.7 hPa North 37.7 km/h 37.7 km/h 45 % 0.0 mm open2300-1.11 W/m2
13:10 18.4 °C 5.5 °C 1008.0 hPa NW 29 km/h 45.2 km/h 43 % 0.0 mm open2300-1.11 W/m2
14:10 18.4 °C 6.2 °C 1007.3 hPa NW 51 km/h 51 km/h 45 % 0.0 mm open2300-1.11 W/m2
15:10 17.9 °C 6.0 °C 1006.6 hPa WNW 35.4 km/h 60.8 km/h 46 % 0.0 mm open2300-1.11 W/m2
16:10 18.1 °C 5.6 °C 1006.2 hPa NNW 33.6 km/h 60.2 km/h 44 % 0.0 mm open2300-1.11 W/m2
17:10 17.8 °C 4.3 °C 1005.6 hPa WNW 45.2 km/h 45.2 km/h 41 % 0.0 mm open2300-1.11 W/m2
18:10 16.8 °C 5.0 °C 1005.9 hPa West 31.9 km/h 89.2 km/h 46 % 0.0 mm open2300-1.11 W/m2
19:10 15.4 °C 4.7 °C 1005.8 hPa NW 53.9 km/h 79.3 km/h 49 % 0.0 mm open2300-1.11 W/m2
20:10 14.7 °C 4.7 °C 1007.2 hPa NW 51.5 km/h 63.7 km/h 51 % 0.0 mm open2300-1.11 W/m2
21:10 14.6 °C 4.0 °C 1007.6 hPa NW 15.6 km/h 49.9 km/h 49 % 0.0 mm open2300-1.11 W/m2
22:10 14.5 °C 3.9 °C 1007.5 hPa NW 40.6 km/h 50.4 km/h 49 % 0.0 mm open2300-1.11 W/m2
23:10 14.3 °C 4.1 °C 1007.3 hPa NW 48.1 km/h 48.1 km/h 50 % 0.0 mm open2300-1.11 W/m2
Observations météo à CASSIS
WU-History script by Weather Underground - 1 mb